Time;durP1;ratioP1;P1;durP2;ratioP2;P2;SDS_P1;SDS_P2;PMS_P1;PMS_P2;Temp;Humidity;BMP_temperature;BMP_pressure;BME280_temperature;BME280_humidity;BME280_pressure;Samples;Min_cycle;Max_cycle;Signal;HPM_P1;HPM_P2
2021/08/27 00:01:40;;;;;;;5.37;2.47;;;12.70;83.70;;;;;;5078192;28;20201;-87
2021/08/27 00:04:05;;;;;;;6.77;2.03;;;12.70;83.70;;;;;;5078279;28;20174;-87
2021/08/27 00:06:31;;;;;;;10.60;2.80;;;12.70;83.80;;;;;;5096344;28;20588;-87
2021/08/27 00:08:58;;;;;;;8.20;2.67;;;12.60;84.00;;;;;;5096171;28;20645;-87
2021/08/27 00:11:24;;;;;;;8.20;3.00;;;12.60;84.10;;;;;;5096219;28;20178;-87
2021/08/27 00:13:50;;;;;;;7.93;3.00;;;12.60;84.20;;;;;;5096192;28;20177;-87
2021/08/27 00:16:16;;;;;;;8.77;3.57;;;12.60;84.20;;;;;;5096385;28;20179;-87
2021/08/27 00:18:41;;;;;;;8.63;2.80;;;12.50;84.40;;;;;;5096255;28;20244;-87
2021/08/27 00:21:07;;;;;;;9.83;2.87;;;12.50;84.30;;;;;;5077878;28;20252;-87
2021/08/27 00:23:33;;;;;;;7.83;2.50;;;12.50;84.30;;;;;;5095919;28;20182;-87
2021/08/27 00:25:59;;;;;;;6.37;2.40;;;12.60;84.20;;;;;;5095934;28;20203;-87
2021/08/27 00:28:24;;;;;;;12.03;3.47;;;12.60;84.00;;;;;;5096164;28;20219;-87
2021/08/27 00:30:50;;;;;;;8.03;2.67;;;12.70;83.70;;;;;;5077755;28;20202;-87
2021/08/27 00:33:16;;;;;;;7.60;2.67;;;12.70;83.80;;;;;;5095784;28;20210;-87
2021/08/27 00:35:41;;;;;;;6.13;2.50;;;12.70;83.80;;;;;;5095722;28;20174;-87
2021/08/27 00:38:14;;;;;;;5.60;2.40;;;12.70;83.70;;;;;;5095755;28;20255;-87
2021/08/27 00:40:40;;;;;;;7.07;2.37;;;12.80;83.70;;;;;;5095606;28;20190;-87
2021/08/27 00:43:06;;;;;;;6.77;2.53;;;12.80;83.40;;;;;;5095599;28;20167;-87
2021/08/27 00:45:31;;;;;;;6.63;2.97;;;12.70;83.50;;;;;;5077473;28;20550;-87
2021/08/27 00:47:59;;;;;;;6.27;2.43;;;12.80;83.40;;;;;;5076956;28;20191;-87
2021/08/27 00:50:25;;;;;;;5.27;2.80;;;12.80;83.60;;;;;;5077363;28;20170;-87
2021/08/27 00:52:50;;;;;;;7.70;2.40;;;12.70;83.40;;;;;;5095728;28;20189;-87
2021/08/27 00:55:16;;;;;;;12.00;2.70;;;12.80;83.30;;;;;;5077315;28;20174;-87
2021/08/27 00:57:42;;;;;;;7.50;2.70;;;12.80;83.70;;;;;;5077180;28;20249;-87
2021/08/27 01:00:08;;;;;;;8.87;3.10;;;12.80;83.40;;;;;;5077463;28;20591;-87
2021/08/27 01:02:34;;;;;;;4.93;2.70;;;12.80;83.50;;;;;;5095108;28;20570;-88
2021/08/27 01:05:00;;;;;;;11.27;3.10;;;12.70;83.50;;;;;;5077107;28;20178;-88
2021/08/27 01:07:33;;;;;;;8.47;2.90;;;12.80;83.60;;;;;;5095146;28;20258;-87
2021/08/27 01:10:06;;;;;;;7.47;2.47;;;12.80;83.70;;;;;;5077373;28;20221;-87
2021/08/27 01:13:09;;;;;;;5.00;2.30;;;12.80;83.50;;;;;;5095292;28;20635;-87
2021/08/27 01:16:02;;;;;;;6.13;2.20;;;12.80;83.40;;;;;;5094979;28;20253;-87
2021/08/27 01:18:33;;;;;;;7.13;2.27;;;12.80;83.20;;;;;;5086285;28;20211;-87
2021/08/27 01:21:43;;;;;;;8.17;3.03;;;12.90;83.00;;;;;;5094837;28;20218;-87
2021/08/27 01:24:10;;;;;;;6.70;3.57;;;12.80;83.30;;;;;;5076794;28;20308;-87
2021/08/27 01:26:41;;;;;;;9.47;2.93;;;12.80;83.20;;;;;;5095074;28;20158;-87
2021/08/27 01:29:08;;;;;;;7.23;2.40;;;12.80;83.10;;;;;;5076712;28;20191;-87
2021/08/27 01:31:33;;;;;;;11.53;3.03;;;12.90;83.10;;;;;;5076577;28;20206;-87
2021/08/27 01:34:14;;;;;;;10.80;2.47;;;12.80;83.20;;;;;;5076509;28;20251;-87
2021/08/27 01:36:42;;;;;;;8.17;3.00;;;12.90;82.90;;;;;;5094612;28;20159;-87
2021/08/27 01:39:11;;;;;;;7.57;2.37;;;13.00;82.80;;;;;;5076177;28;20301;-87
2021/08/27 01:41:40;;;;;;;8.67;2.47;;;12.90;83.10;;;;;;5094394;28;20279;-87
2021/08/27 01:44:08;;;;;;;10.27;2.70;;;12.90;83.00;;;;;;5076235;28;20175;-87
2021/08/27 01:46:36;;;;;;;8.93;3.10;;;12.90;82.70;;;;;;5094349;28;20174;-87
2021/08/27 01:49:04;;;;;;;6.50;2.67;;;13.00;82.50;;;;;;5094285;28;20222;-87
2021/08/27 01:51:32;;;;;;;6.10;2.40;;;12.90;82.70;;;;;;5076113;28;20249;-87
2021/08/27 01:53:59;;;;;;;5.33;2.40;;;12.90;83.00;;;;;;5094330;28;20652;-87
2021/08/27 01:56:26;;;;;;;5.73;2.77;;;12.90;82.90;;;;;;5076118;28;20664;-87
2021/08/27 01:58:52;;;;;;;8.27;2.77;;;12.90;82.90;;;;;;5075333;28;20191;-87
2021/08/27 02:01:18;;;;;;;6.63;3.33;;;12.90;83.00;;;;;;5094097;28;20202;-87
2021/08/27 02:03:46;;;;;;;5.80;2.23;;;12.90;83.00;;;;;;5075973;28;20166;-87
2021/08/27 02:06:13;;;;;;;5.37;2.87;;;12.90;82.90;;;;;;5075900;28;20174;-87
2021/08/27 02:08:41;;;;;;;8.60;2.40;;;13.00;82.70;;;;;;5093881;28;20198;-87
2021/08/27 02:11:07;;;;;;;8.63;2.43;;;13.00;82.70;;;;;;5075728;28;20174;-87
2021/08/27 02:13:33;;;;;;;6.37;2.30;;;13.00;82.60;;;;;;5094212;28;20192;-87
2021/08/27 02:16:01;;;;;;;16.03;2.80;;;13.10;82.40;;;;;;5076085;28;20175;-87
2021/08/27 02:18:28;;;;;;;5.63;2.90;;;13.00;82.40;;;;;;5075648;28;20195;-87
2021/08/27 02:20:54;;;;;;;7.10;2.40;;;13.10;82.20;;;;;;5075612;28;20202;-87
2021/08/27 02:23:23;;;;;;;8.60;2.47;;;13.20;82.10;;;;;;5075654;28;20198;-87
2021/08/27 02:25:51;;;;;;;6.03;2.40;;;13.20;82.10;;;;;;5075535;28;20175;-87
2021/08/27 02:28:19;;;;;;;7.73;3.20;;;13.20;82.10;;;;;;5093712;28;20191;-87
2021/08/27 02:30:47;;;;;;;5.20;2.50;;;13.20;82.20;;;;;;5075548;28;20179;-87
2021/08/27 02:33:14;;;;;;;8.03;2.60;;;13.20;82.10;;;;;;5075442;28;20213;-87
2021/08/27 02:35:41;;;;;;;8.30;3.00;;;13.20;82.20;;;;;;5093584;28;20174;-87
2021/08/27 02:38:13;;;;;;;6.40;2.60;;;13.10;82.10;;;;;;5093617;28;20222;-87
2021/08/27 02:40:38;;;;;;;3.97;2.37;;;13.20;82.00;;;;;;5093633;28;20166;-87
2021/08/27 02:43:04;;;;;;;9.07;4.20;;;13.20;82.00;;;;;;5075345;28;20327;-87
2021/08/27 02:45:30;;;;;;;9.73;2.40;;;13.20;82.00;;;;;;5075408;28;20664;-87
2021/08/27 02:47:55;;;;;;;6.33;2.60;;;13.20;82.10;;;;;;5093352;28;20181;-87
2021/08/27 02:50:21;;;;;;;10.17;2.57;;;13.20;82.30;;;;;;5093380;28;20654;-87
2021/08/27 02:53:01;;;;;;;8.33;3.23;;;13.20;82.20;;;;;;5093382;28;20209;-87
2021/08/27 02:55:35;;;;;;;11.77;2.60;;;13.20;81.90;;;;;;5075376;28;20177;-87
2021/08/27 02:58:11;;;;;;;7.83;2.47;;;13.20;82.10;;;;;;5075223;28;20198;-87
2021/08/27 03:00:52;;;;;;;9.67;2.60;;;13.20;82.10;;;;;;5075138;28;20646;-87
2021/08/27 03:03:21;;;;;;;12.00;3.00;;;13.30;82.30;;;;;;5075171;28;20627;-87
2021/08/27 03:05:47;;;;;;;8.00;2.43;;;13.30;82.20;;;;;;5093479;28;20533;-87
2021/08/27 03:08:19;;;;;;;8.97;2.80;;;13.30;82.20;;;;;;5075041;28;20201;-87
2021/08/27 03:10:54;;;;;;;4.07;2.43;;;13.30;82.20;;;;;;5095942;28;20157;-87
2021/08/27 03:13:30;;;;;;;8.63;2.53;;;13.40;82.10;;;;;;5079314;28;20277;-87
2021/08/27 03:16:04;;;;;;;6.37;2.70;;;13.40;82.10;;;;;;5079207;28;20170;-87
2021/08/27 03:18:43;;;;;;;8.00;2.57;;;13.40;82.00;;;;;;5079279;28;20224;-87
2021/08/27 03:21:19;;;;;;;6.07;2.90;;;13.40;82.10;;;;;;5097543;28;20213;-87
2021/08/27 03:23:49;;;;;;;5.80;2.57;;;13.50;82.10;;;;;;5097568;28;20150;-87
2021/08/27 03:26:21;;;;;;;8.20;3.00;;;13.40;82.00;;;;;;5097479;28;20158;-87
2021/08/27 03:28:51;;;;;;;11.23;3.10;;;13.50;82.10;;;;;;5097097;28;20186;-87
2021/08/27 03:31:18;;;;;;;10.33;2.83;;;13.50;82.10;;;;;;5079744;28;20178;-87
2021/08/27 03:33:44;;;;;;;7.83;2.60;;;13.50;81.90;;;;;;5078866;28;20171;-87
2021/08/27 03:36:10;;;;;;;11.07;2.87;;;13.50;81.70;;;;;;5078945;28;20171;-87
2021/08/27 03:38:38;;;;;;;10.17;3.43;;;13.50;82.10;;;;;;5096663;28;20206;-87
2021/08/27 03:41:04;;;;;;;7.30;3.30;;;13.50;82.30;;;;;;5078925;28;20206;-87
2021/08/27 03:43:31;;;;;;;8.87;3.53;;;13.50;82.10;;;;;;5096793;28;20257;-87
2021/08/27 03:46:00;;;;;;;11.73;3.07;;;13.40;82.50;;;;;;5097035;28;20166;-87
2021/08/27 03:48:27;;;;;;;9.67;2.50;;;13.40;82.70;;;;;;5078448;28;20191;-87
2021/08/27 03:50:54;;;;;;;8.57;2.93;;;13.40;83.10;;;;;;5096706;28;20181;-87
2021/08/27 03:53:22;;;;;;;8.33;2.90;;;13.30;83.30;;;;;;5078372;28;20308;-87
2021/08/27 03:55:50;;;;;;;9.43;2.77;;;13.30;83.20;;;;;;5078478;28;20171;-87
2021/08/27 03:58:20;;;;;;;5.20;2.53;;;13.30;83.40;;;;;;5096636;28;20190;-87
2021/08/27 04:00:46;;;;;;;6.90;2.67;;;13.30;83.60;;;;;;5096376;28;20259;-88
2021/08/27 04:03:12;;;;;;;9.43;2.60;;;13.30;83.60;;;;;;5096639;28;20212;-87
2021/08/27 04:05:38;;;;;;;8.37;2.30;;;13.30;83.60;;;;;;5078272;28;20630;-87
2021/08/27 04:08:04;;;;;;;7.27;2.60;;;13.30;83.90;;;;;;5096314;28;20191;-87
2021/08/27 04:10:29;;;;;;;11.90;2.70;;;13.30;84.00;;;;;;5096367;28;20270;-88
2021/08/27 04:12:55;;;;;;;10.03;2.93;;;13.30;84.20;;;;;;5096525;28;20564;-88
2021/08/27 04:15:23;;;;;;;3.57;2.07;;;13.20;84.60;;;;;;5096251;28;20657;-88
2021/08/27 04:17:49;;;;;;;11.00;2.90;;;13.30;84.90;;;;;;5077888;28;20175;-87
2021/08/27 04:20:15;;;;;;;6.77;2.60;;;13.30;84.70;;;;;;5077909;28;20201;-87
2021/08/27 04:22:41;;;;;;;11.50;2.93;;;13.30;84.80;;;;;;5077040;28;20234;-88
2021/08/27 04:25:07;;;;;;;6.53;2.47;;;13.30;84.60;;;;;;5096008;28;20517;-88
2021/08/27 04:27:33;;;;;;;6.70;2.30;;;13.30;84.50;;;;;;5095938;28;20179;-88
2021/08/27 04:29:58;;;;;;;8.03;2.90;;;13.20;84.80;;;;;;5096086;28;20563;-88
2021/08/27 04:32:24;;;;;;;8.37;2.60;;;13.30;84.90;;;;;;5077699;28;20183;-88
2021/08/27 04:34:50;;;;;;;8.50;2.37;;;13.30;84.90;;;;;;5077752;28;20187;-88
2021/08/27 04:37:15;;;;;;;8.10;2.80;;;13.30;84.90;;;;;;5077625;28;20174;-88
2021/08/27 04:39:41;;;;;;;7.07;3.00;;;13.30;84.90;;;;;;5077521;28;20214;-87
2021/08/27 04:42:07;;;;;;;6.53;2.73;;;13.30;85.10;;;;;;5078395;28;20281;-88
2021/08/27 04:44:32;;;;;;;7.10;2.93;;;13.30;85.30;;;;;;5077905;28;20186;-88
2021/08/27 04:46:58;;;;;;;7.47;2.73;;;13.30;85.60;;;;;;5077558;28;20183;-88
2021/08/27 04:49:24;;;;;;;7.03;2.87;;;13.20;85.60;;;;;;5095508;28;20257;-88
2021/08/27 04:51:50;;;;;;;7.87;2.13;;;13.30;85.80;;;;;;5077446;28;20630;-88
2021/08/27 04:54:15;;;;;;;9.17;3.10;;;13.20;86.10;;;;;;5077417;28;20174;-88
2021/08/27 04:56:41;;;;;;;11.33;3.03;;;13.20;86.30;;;;;;5095774;28;20253;-88
2021/08/27 04:59:07;;;;;;;5.87;2.33;;;13.20;86.40;;;;;;5077326;28;20735;-88
2021/08/27 05:01:32;;;;;;;7.30;2.90;;;13.30;86.60;;;;;;5077151;28;20209;-88
2021/08/27 05:03:58;;;;;;;9.57;2.93;;;13.20;86.60;;;;;;5095532;28;20538;-88
2021/08/27 05:06:24;;;;;;;5.30;1.90;;;13.30;86.60;;;;;;5095244;28;20178;-88
2021/08/27 05:08:49;;;;;;;6.80;2.53;;;13.20;86.80;;;;;;5077053;28;20195;-88
2021/08/27 05:11:15;;;;;;;9.10;2.40;;;13.20;86.80;;;;;;5077039;28;20667;-88
2021/08/27 05:13:41;;;;;;;5.50;2.23;;;13.30;86.60;;;;;;5077018;28;20228;-88
2021/08/27 05:16:07;;;;;;;4.17;2.33;;;13.30;86.40;;;;;;5077038;28;20181;-88
2021/08/27 05:18:32;;;;;;;6.33;2.33;;;13.30;86.60;;;;;;5076822;28;20352;-88
2021/08/27 05:20:58;;;;;;;4.33;2.40;;;13.40;86.10;;;;;;5076889;28;20203;-88
2021/08/27 05:23:24;;;;;;;9.43;2.87;;;13.40;86.20;;;;;;5076826;28;20588;-88
2021/08/27 05:25:52;;;;;;;5.67;2.50;;;13.40;86.30;;;;;;5094895;28;20224;-88
2021/08/27 05:28:17;;;;;;;9.90;2.37;;;13.40;86.40;;;;;;5076636;28;20692;-88
2021/08/27 05:30:43;;;;;;;11.30;2.57;;;13.50;86.00;;;;;;5076677;28;20179;-88
2021/08/27 05:33:09;;;;;;;7.80;2.33;;;13.50;85.90;;;;;;5075627;28;20270;-88
2021/08/27 05:35:34;;;;;;;8.23;2.50;;;13.50;86.00;;;;;;5076481;28;20197;-88
2021/08/27 05:38:00;;;;;;;5.93;2.13;;;13.50;86.10;;;;;;5076323;28;20206;-88
2021/08/27 05:40:26;;;;;;;3.97;2.17;;;13.50;86.10;;;;;;5076477;28;20649;-88
2021/08/27 05:42:52;;;;;;;7.60;2.40;;;13.60;85.70;;;;;;5076368;28;20691;-88
2021/08/27 05:45:18;;;;;;;5.30;2.10;;;13.60;85.50;;;;;;5094502;28;20250;-88
2021/08/27 05:47:45;;;;;;;6.80;2.27;;;13.70;85.60;;;;;;5076262;28;20182;-88
2021/08/27 05:50:13;;;;;;;3.77;2.10;;;13.80;85.30;;;;;;5076344;28;20206;-88
2021/08/27 05:52:39;;;;;;;5.63;2.20;;;13.70;85.60;;;;;;5094387;28;20232;-88
2021/08/27 05:55:06;;;;;;;4.43;2.27;;;13.80;85.60;;;;;;5076524;28;20178;-88
2021/08/27 05:57:31;;;;;;;5.40;2.03;;;13.70;85.90;;;;;;5076193;28;20209;-88
2021/08/27 05:59:57;;;;;;;5.37;2.13;;;13.80;85.80;;;;;;5076121;28;20251;-88
2021/08/27 06:02:23;;;;;;;6.53;2.20;;;13.80;85.80;;;;;;5094120;28;20252;-88
2021/08/27 06:04:48;;;;;;;8.90;2.00;;;13.80;85.80;;;;;;5094155;28;20701;-88
2021/08/27 06:07:14;;;;;;;11.57;2.27;;;13.80;85.80;;;;;;5076023;28;20677;-88
2021/08/27 06:09:42;;;;;;;5.50;2.20;;;13.80;85.90;;;;;;5075897;28;20567;-88
2021/08/27 06:12:08;;;;;;;5.53;1.93;;;13.90;86.20;;;;;;5075990;28;20668;-88
2021/08/27 06:14:33;;;;;;;4.30;1.87;;;13.90;85.60;;;;;;5075765;28;20183;-88
2021/08/27 06:16:59;;;;;;;3.87;2.03;;;13.90;86.00;;;;;;5093958;28;20202;-89
2021/08/27 06:19:25;;;;;;;5.47;2.67;;;13.90;86.10;;;;;;5075847;28;20206;-89
2021/08/27 06:21:50;;;;;;;5.37;1.83;;;14.00;86.30;;;;;;5075685;28;20202;-89
2021/08/27 06:24:16;;;;;;;5.03;1.80;;;14.00;86.30;;;;;;5093902;28;20223;-88
2021/08/27 06:26:42;;;;;;;6.17;1.97;;;14.10;86.30;;;;;;5075653;28;20171;-89
2021/08/27 06:29:07;;;;;;;4.07;2.10;;;14.10;86.50;;;;;;5075568;28;20190;-89
2021/08/27 06:31:33;;;;;;;6.23;2.07;;;14.20;86.20;;;;;;5075568;28;20179;-88
2021/08/27 06:33:59;;;;;;;4.90;1.57;;;14.20;86.30;;;;;;5075887;28;20184;-89
2021/08/27 06:36:24;;;;;;;7.40;2.40;;;14.30;86.40;;;;;;5093952;28;20262;-88
2021/08/27 06:38:50;;;;;;;5.50;2.10;;;14.30;86.20;;;;;;5075530;28;20214;-89
2021/08/27 06:41:16;;;;;;;3.83;1.67;;;14.30;86.20;;;;;;5075438;28;20202;-89
2021/08/27 06:43:44;;;;;;;3.33;1.83;;;14.30;86.30;;;;;;5093564;28;20192;-88
2021/08/27 06:46:13;;;;;;;3.10;1.60;;;14.40;86.30;;;;;;5093153;28;20166;-88
2021/08/27 06:48:40;;;;;;;4.30;2.00;;;14.40;86.30;;;;;;5075260;28;20275;-88
2021/08/27 06:51:05;;;;;;;6.00;1.57;;;14.50;86.20;;;;;;5075319;28;20611;-88
2021/08/27 06:53:31;;;;;;;2.90;1.50;;;14.50;86.10;;;;;;5075323;28;20170;-88
2021/08/27 06:55:57;;;;;;;2.03;1.40;;;14.50;86.10;;;;;;5093425;28;20257;-88
2021/08/27 06:58:23;;;;;;;2.83;1.47;;;14.50;86.20;;;;;;5075227;28;20198;-88
2021/08/27 07:00:49;;;;;;;2.00;1.30;;;14.60;86.20;;;;;;5093273;28;20243;-88
2021/08/27 07:03:15;;;;;;;4.57;1.60;;;14.60;86.40;;;;;;5075222;28;20167;-88
2021/08/27 07:05:41;;;;;;;3.30;1.60;;;14.60;86.60;;;;;;5093613;28;20167;-88
2021/08/27 07:08:07;;;;;;;2.83;1.50;;;14.60;86.80;;;;;;5076141;28;20190;-88
2021/08/27 07:10:33;;;;;;;2.43;1.40;;;14.70;87.00;;;;;;5075137;28;20181;-88
2021/08/27 07:12:59;;;;;;;2.27;1.47;;;14.70;86.90;;;;;;5093450;28;20171;-88
2021/08/27 07:15:25;;;;;;;2.10;1.50;;;14.80;87.10;;;;;;5093211;28;20174;-87
2021/08/27 07:17:51;;;;;;;3.23;1.60;;;14.80;86.70;;;;;;5093092;28;20167;-88
2021/08/27 07:20:17;;;;;;;4.53;1.70;;;14.80;86.60;;;;;;5075050;28;20178;-88
2021/08/27 07:22:44;;;;;;;5.40;1.70;;;14.90;86.50;;;;;;5074994;28;20194;-88
2021/08/27 07:25:10;;;;;;;7.67;1.77;;;14.90;86.40;;;;;;5075279;28;20174;-88
2021/08/27 07:27:37;;;;;;;2.77;1.30;;;14.90;86.40;;;;;;5074991;28;20167;-88
2021/08/27 07:30:05;;;;;;;2.53;1.63;;;15.00;86.60;;;;;;5075019;28;20167;-88
2021/08/27 07:32:30;;;;;;;2.73;1.90;;;14.90;86.40;;;;;;5074850;28;20262;-88
2021/08/27 07:34:56;;;;;;;9.37;1.90;;;14.90;86.40;;;;;;5093338;28;20327;-88
2021/08/27 07:37:22;;;;;;;3.63;1.80;;;15.00;86.30;;;;;;5092988;28;20237;-87
2021/08/27 07:39:47;;;;;;;5.40;1.73;;;15.00;86.50;;;;;;5074785;28;20214;-88
2021/08/27 07:42:13;;;;;;;3.38;1.80;;;15.00;86.70;;;;;;5092931;28;20548;-88
2021/08/27 07:44:39;;;;;;;6.10;1.87;;;15.10;86.60;;;;;;5074806;28;20673;-88
2021/08/27 07:47:05;;;;;;;6.83;2.10;;;15.10;86.40;;;;;;5074791;28;20193;-88
2021/08/27 07:49:31;;;;;;;5.77;2.00;;;15.10;86.30;;;;;;5074700;28;20236;-87
2021/08/27 07:51:57;;;;;;;4.13;1.90;;;15.10;86.40;;;;;;5074720;28;20179;-87
2021/08/27 07:54:24;;;;;;;2.57;1.80;;;15.10;86.50;;;;;;5093045;28;20167;-87
2021/08/27 07:56:49;;;;;;;5.27;1.77;;;15.00;86.90;;;;;;5093775;28;20264;-87
2021/08/27 07:59:15;;;;;;;4.77;2.07;;;15.00;87.10;;;;;;5078651;28;20716;-87
2021/08/27 08:01:41;;;;;;;3.07;1.63;;;14.90;87.70;;;;;;5096666;28;20657;-87
2021/08/27 08:04:06;;;;;;;3.00;1.93;;;15.00;87.80;;;;;;5096713;28;20250;-87
2021/08/27 08:06:32;;;;;;;4.23;2.00;;;15.00;88.20;;;;;;5096671;28;20171;-87
2021/08/27 08:09:00;;;;;;;2.83;1.93;;;15.10;88.30;;;;;;5078147;28;20191;-87
2021/08/27 08:11:25;;;;;;;4.37;1.80;;;15.10;88.50;;;;;;5096337;28;20236;-87
2021/08/27 08:13:51;;;;;;;3.38;2.33;;;15.20;88.70;;;;;;5096585;28;20638;-87
2021/08/27 08:16:17;;;;;;;8.30;2.43;;;15.20;89.00;;;;;;5078020;28;20573;-87
2021/08/27 08:18:42;;;;;;;5.43;2.47;;;15.30;88.90;;;;;;5096119;28;20551;-87
2021/08/27 08:21:08;;;;;;;5.50;2.60;;;15.50;89.40;;;;;;5077927;28;20202;-87
2021/08/27 08:23:34;;;;;;;4.13;2.10;;;15.60;89.60;;;;;;5077873;28;20175;-87
2021/08/27 08:26:01;;;;;;;3.58;1.98;;;15.70;89.30;;;;;;5077884;28;20178;-87
2021/08/27 08:28:27;;;;;;;7.18;2.40;;;15.50;88.80;;;;;;5077760;28;20195;-88
2021/08/27 08:30:53;;;;;;;5.18;2.60;;;15.50;88.90;;;;;;5096057;28;20661;-88
2021/08/27 08:33:19;;;;;;;5.20;2.75;;;15.40;88.90;;;;;;5077754;28;20178;-88
2021/08/27 08:35:46;;;;;;;9.85;3.13;;;15.30;88.90;;;;;;5078067;28;20170;-89
2021/08/27 08:38:11;;;;;;;7.03;3.05;;;15.30;89.00;;;;;;5077683;28;20234;-90
2021/08/27 08:40:42;;;;;;;5.45;2.40;;;15.20;89.30;;;;;;5077918;28;20202;-90
2021/08/27 08:43:09;;;;;;;6.18;2.70;;;15.10;89.40;;;;;;5077734;28;20178;-89
2021/08/27 08:45:43;;;;;;;6.80;2.50;;;15.00;89.40;;;;;;5096087;28;20170;-89
2021/08/27 08:48:10;;;;;;;2.53;2.33;;;15.00;89.40;;;;;;5077528;28;20190;-89
2021/08/27 08:50:36;;;;;;;3.88;2.40;;;15.20;89.40;;;;;;5077569;28;20257;-89
2021/08/27 08:53:02;;;;;;;5.43;2.28;;;15.20;89.20;;;;;;5077545;28;20202;-90
2021/08/27 08:55:29;;;;;;;7.72;3.15;;;15.20;89.40;;;;;;5077984;28;20171;-89
2021/08/27 08:57:55;;;;;;;6.50;2.20;;;15.20;89.70;;;;;;5077413;28;20182;-89
2021/08/27 09:00:21;;;;;;;6.22;3.28;;;15.30;89.60;;;;;;5077437;28;20257;-88
2021/08/27 09:02:47;;;;;;;4.90;2.60;;;15.30;89.60;;;;;;5078142;28;20742;-88
2021/08/27 09:05:12;;;;;;;4.28;2.50;;;15.40;89.60;;;;;;5077326;28;20216;-88
2021/08/27 09:07:39;;;;;;;5.28;2.78;;;15.40;89.60;;;;;;5076901;28;20799;-89
2021/08/27 09:10:05;;;;;;;4.60;2.50;;;15.50;89.60;;;;;;5095493;28;20159;-88
2021/08/27 09:12:31;;;;;;;7.60;2.55;;;15.50;89.30;;;;;;5095204;28;20190;-88
2021/08/27 09:15:10;;;;;;;6.45;2.65;;;15.50;89.20;;;;;;5095228;28;20198;-88
2021/08/27 09:17:41;;;;;;;6.53;2.90;;;15.50;89.10;;;;;;5076945;28;20265;-89
2021/08/27 09:20:11;;;;;;;4.32;3.10;;;15.50;89.30;;;;;;5095069;28;20174;-88
2021/08/27 09:22:44;;;;;;;8.55;3.53;;;15.50;89.50;;;;;;5076960;28;20691;-88
2021/08/27 09:25:11;;;;;;;4.72;2.40;;;15.70;89.60;;;;;;5094925;28;20170;-88
2021/08/27 09:28:09;;;;;;;2.50;2.08;;;15.70;89.90;;;;;;5076739;28;20179;-88
2021/08/27 09:30:51;;;;;;;6.55;2.50;;;15.90;90.10;;;;;;5094968;28;20174;-88
2021/08/27 09:33:24;;;;;;;4.95;2.13;;;16.00;90.10;;;;;;5094987;28;20155;-88
2021/08/27 09:36:04;;;;;;;7.47;2.10;;;16.10;90.30;;;;;;5076671;28;20559;-89
2021/08/27 09:38:34;;;;;;;3.88;2.25;;;16.30;90.40;;;;;;5076763;28;20217;-88
2021/08/27 09:41:05;;;;;;;7.88;2.65;;;16.50;90.20;;;;;;5094551;28;20191;-88
2021/08/27 09:43:51;;;;;;;3.53;2.00;;;16.60;89.90;;;;;;5076478;28;20178;-87
2021/08/27 09:46:37;;;;;;;3.05;1.88;;;16.60;88.80;;;;;;5076488;28;20245;-87
2021/08/27 09:49:27;;;;;;;3.28;2.42;;;16.50;87.30;;;;;;5076191;28;20190;-87
2021/08/27 09:51:54;;;;;;;8.68;2.65;;;16.60;88.10;;;;;;5094695;28;20167;-87
2021/08/27 09:54:27;;;;;;;4.28;1.90;;;16.70;88.60;;;;;;5094430;28;20642;-87
2021/08/27 09:56:58;;;;;;;6.75;2.20;;;16.70;87.30;;;;;;5094320;28;20528;-87
2021/08/27 09:59:50;;;;;;;3.47;2.08;;;16.70;87.60;;;;;;5076055;28;20281;-87
2021/08/27 10:02:25;;;;;;;2.78;2.08;;;16.60;87.30;;;;;;5076646;28;20191;-88
2021/08/27 10:04:54;;;;;;;3.60;1.77;;;16.40;86.90;;;;;;5076008;28;20608;-88
2021/08/27 10:07:37;;;;;;;4.22;1.67;;;16.40;87.40;;;;;;5075819;28;20174;-88
2021/08/27 10:10:05;;;;;;;2.05;1.80;;;16.30;87.70;;;;;;5075877;28;20258;-87
2021/08/27 10:12:36;;;;;;;4.00;1.95;;;16.20;88.00;;;;;;5075776;28;20228;-87
2021/08/27 10:15:04;;;;;;;3.10;2.00;;;16.30;88.80;;;;;;5075847;28;20627;-87
2021/08/27 10:17:30;;;;;;;3.50;2.00;;;16.60;89.60;;;;;;5093751;28;20236;-87
2021/08/27 10:19:56;;;;;;;5.68;1.98;;;16.80;89.10;;;;;;5075044;28;20194;-87
2021/08/27 10:22:22;;;;;;;3.35;2.38;;;16.90;88.30;;;;;;5093803;28;20658;-87
2021/08/27 10:24:49;;;;;;;4.43;2.30;;;16.80;87.00;;;;;;5093759;28;20173;-87
2021/08/27 10:27:16;;;;;;;3.85;2.03;;;16.60;86.90;;;;;;5075657;28;20201;-87
2021/08/27 10:29:50;;;;;;;7.07;3.17;;;16.40;87.00;;;;;;5075956;28;20240;-88
2021/08/27 10:32:38;;;;;;;6.20;3.08;;;16.30;87.80;;;;;;5075813;28;20740;-89
2021/08/27 10:35:11;;;;;;;9.20;3.17;;;16.20;88.50;;;;;;5075690;28;20646;-88
2021/08/27 10:37:42;;;;;;;6.68;2.55;;;16.10;89.20;;;;;;5075547;28;20176;-87
2021/08/27 10:40:36;;;;;;;6.20;2.67;;;16.20;89.30;;;;;;5093556;28;20167;-87
2021/08/27 10:43:03;;;;;;;4.60;2.70;;;16.40;89.60;;;;;;5093744;28;20194;-87
2021/08/27 10:45:32;;;;;;;5.65;3.20;;;16.50;90.20;;;;;;5093882;28;20544;-87
2021/08/27 10:48:09;;;;;;;6.45;3.35;;;16.80;90.30;;;;;;5075416;28;20217;-87
2021/08/27 10:50:36;;;;;;;5.72;2.70;;;17.00;90.10;;;;;;5093531;28;20162;-87
2021/08/27 10:53:32;;;;;;;3.28;2.40;;;17.00;89.10;;;;;;5093426;28;20222;-87
2021/08/27 10:56:05;;;;;;;4.75;2.47;;;17.20;89.10;;;;;;5075669;28;20266;-87
2021/08/27 10:58:38;;;;;;;4.53;2.38;;;17.30;88.40;;;;;;5075204;28;20248;-87
2021/08/27 11:01:03;;;;;;;4.88;2.55;;;17.30;87.10;;;;;;5075234;28;20203;-87
2021/08/27 11:03:54;;;;;;;3.83;1.88;;;17.40;87.20;;;;;;5075665;28;20713;-87
2021/08/27 11:06:20;;;;;;;4.90;1.98;;;17.40;86.20;;;;;;5093545;28;20163;-87
2021/08/27 11:08:46;;;;;;;3.75;1.98;;;17.50;86.30;;;;;;5075149;28;20191;-87
2021/08/27 11:11:18;;;;;;;3.90;2.13;;;17.50;86.10;;;;;;5075131;28;20181;-87
2021/08/27 11:13:44;;;;;;;3.67;2.00;;;17.80;86.70;;;;;;5093211;28;20223;-87
2021/08/27 11:16:18;;;;;;;4.20;2.28;;;17.90;84.80;;;;;;5093267;28;20167;-87
2021/08/27 11:18:44;;;;;;;5.45;2.05;;;18.10;85.50;;;;;;5074997;28;20198;-87
2021/08/27 11:21:34;;;;;;;4.28;1.98;;;17.80;83.20;;;;;;5075275;28;20256;-87
2021/08/27 11:24:17;;;;;;;4.78;2.40;;;17.50;83.70;;;;;;5093368;28;20159;-87
2021/08/27 11:27:02;;;;;;;4.35;2.28;;;17.80;85.50;;;;;;5093095;28;20656;-87
2021/08/27 11:29:41;;;;;;;3.60;1.88;;;18.00;83.60;;;;;;5074996;28;20233;-87
2021/08/27 11:32:09;;;;;;;2.38;2.00;;;18.20;83.10;;;;;;5078122;28;20224;-87
2021/08/27 11:34:53;;;;;;;2.00;1.80;;;18.30;82.30;;;;;;5097030;28;20679;-87
2021/08/27 11:37:24;;;;;;;2.38;1.33;;;18.40;82.20;;;;;;5096937;28;20661;-87
2021/08/27 11:39:51;;;;;;;4.60;2.20;;;18.60;82.70;;;;;;5078572;28;20274;-87
2021/08/27 11:42:19;;;;;;;2.58;1.70;;;18.60;82.50;;;;;;5078933;28;20705;-86
2021/08/27 11:44:54;;;;;;;2.83;1.67;;;18.50;80.60;;;;;;5096945;28;20209;-86
2021/08/27 11:47:21;;;;;;;4.00;1.50;;;18.70;81.10;;;;;;5078599;28;20171;-87
2021/08/27 11:50:00;;;;;;;2.45;1.50;;;19.00;78.90;;;;;;5078527;28;20252;-87
2021/08/27 11:52:28;;;;;;;2.25;1.50;;;19.00;77.60;;;;;;5078536;28;20578;-87
2021/08/27 11:55:00;;;;;;;3.22;1.55;;;19.10;78.80;;;;;;5096622;28;20198;-86
2021/08/27 11:57:26;;;;;;;3.55;1.20;;;19.20;76.00;;;;;;5078424;28;20178;-86
2021/08/27 12:00:11;;;;;;;2.70;1.08;;;18.90;75.30;;;;;;5078594;28;20568;-86
2021/08/27 12:02:37;;;;;;;2.20;1.13;;;18.80;77.40;;;;;;5078324;28;20203;-86
2021/08/27 12:05:05;;;;;;;2.55;1.30;;;19.10;77.20;;;;;;5096372;28;20194;-86
2021/08/27 12:07:34;;;;;;;1.40;1.08;;;19.20;76.70;;;;;;5078264;28;20708;-86
2021/08/27 12:10:18;;;;;;;1.92;1.20;;;19.50;74.60;;;;;;5096237;28;20225;-86
2021/08/27 12:12:46;;;;;;;3.08;1.50;;;19.70;75.60;;;;;;5096347;28;20190;-86
2021/08/27 12:15:15;;;;;;;1.75;1.08;;;19.40;75.00;;;;;;5078068;28;20205;-86
2021/08/27 12:18:09;;;;;;;1.42;1.05;;;19.70;75.60;;;;;;5096098;28;20167;-86
2021/08/27 12:20:42;;;;;;;1.77;0.90;;;19.90;71.40;;;;;;5096191;28;20155;-86
2021/08/27 12:23:12;;;;;;;1.52;0.80;;;20.10;69.30;;;;;;5078246;28;20195;-86
2021/08/27 12:25:44;;;;;;;1.55;1.15;;;20.10;70.90;;;;;;5077908;28;20170;-86
2021/08/27 12:28:19;;;;;;;2.30;1.25;;;19.70;72.50;;;;;;5077862;28;20199;-86
2021/08/27 12:30:54;;;;;;;4.60;1.25;;;19.50;72.70;;;;;;5096027;28;20146;-86
2021/08/27 12:33:21;;;;;;;10.02;1.63;;;19.30;74.10;;;;;;5095933;28;20146;-86
2021/08/27 12:35:48;;;;;;;1.85;1.20;;;19.30;72.50;;;;;;5096095;28;20761;-86
2021/08/27 12:38:18;;;;;;;2.05;1.30;;;19.20;73.80;;;;;;5077441;28;20580;-86
2021/08/27 12:40:44;;;;;;;7.03;1.70;;;19.20;74.20;;;;;;5095764;28;20174;-86
2021/08/27 12:43:12;;;;;;;1.95;1.50;;;19.10;75.50;;;;;;5095008;28;20207;-86
2021/08/27 12:45:45;;;;;;;2.10;1.40;;;19.10;74.50;;;;;;5077540;28;20547;-86
2021/08/27 12:48:14;;;;;;;1.35;1.23;;;19.00;74.70;;;;;;5095542;28;20194;-86
2021/08/27 12:50:47;;;;;;;2.00;1.40;;;18.70;75.00;;;;;;5077428;28;20265;-86
2021/08/27 12:53:13;;;;;;;1.02;0.93;;;18.70;76.10;;;;;;5095544;28;20159;-85
2021/08/27 12:55:40;;;;;;;2.88;1.13;;;18.70;74.70;;;;;;5095448;28;20699;-85